Terminal Aerodrome Forecast
Issued by NWS

Home | Current Version | Previous Version | Text Only | Print | Product List | Glossary On
Versions: 1 2 3 4 5 6 7 8 9 10 11 12 13 14 15 16 17
000
FTUS43 KMPX 221500 AAA
TAFRNH
TAF AMD
KRNH 221530Z 2216/2312 15011KT 2SM BR OVC004
      TEMPO 2216/2220 1SM -RA BR OVC003
     FM222100 11011KT 3SM -RASN OVC006
     FM230000 08010KT 2SM -SN OVC005
     FM230900 03013KT 2SM -SN BR OVC004=

USA.gov is the U.S. government's official web portal to all federal, state and local government web resources and services.